Disclaimer

Please do not use the information listed here in-flight or in-navigation, as they are not provided to us by the airports but are provided by volunteers, so they might be outdated.

Search


Regions


Airport information page

Radio informations:
Ground (GND) - 259.3 MHz
Melbourne Center - 125.9 MHz

Airport informations:
Latitude: 22° 14' 08.00" S
Longitude: 114° 05' 19.00" E
Elevation: 19 feet - 6 meters
Operating hours: N/A
Operating agency: Military-civil joint use airport
Timezone: UTC+8
Fuel: Jet A1, without icing nhibitor.

Runway information:
18/36 - 9997 x 148 feet< - >3047 x 45 meters

Recent METARs:
YPLM 142100Z AUTO 16004KT 8000 // NCD 19/18 Q1012
YPLM 142130Z AUTO 00000KT 8000 // SCT009 19/18 Q1013 RF00.0/000.0
YPLM 142200Z AUTO 00000KT 8000 // SCT009 20/19 Q1013

Airport on the map: